Time;durP1;ratioP1;P1;durP2;ratioP2;P2;SDS_P1;SDS_P2;PMS_P1;PMS_P2;Temp;Humidity;BMP_temperature;BMP_pressure;BME280_temperature;BME280_humidity;BME280_pressure;Samples;Min_cycle;Max_cycle;Signal;HPM_P1;HPM_P2
2023/01/07 00:00:14;;;;;;;6.25;3.67;;;;;;;14.05;64.27;101154.50;688098;28;1368;-82
2023/01/07 00:00:34;;;;;;;6.53;3.83;;;;;;;14.09;64.39;101147.59;688219;28;1317;-82
2023/01/07 00:01:02;;;;;;;4.32;3.70;;;;;;;14.13;64.38;101152.06;683015;29;1290;-83
2023/01/07 00:01:27;;;;;;;4.30;3.90;;;;;;;14.18;64.00;101158.28;680451;29;1264;-83
2023/01/07 00:01:48;;;;;;;4.07;3.78;;;;;;;14.22;64.00;101160.13;685688;28;1236;-82
2023/01/07 00:02:08;;;;;;;4.27;3.87;;;;;;;14.35;63.65;101148.13;688486;28;1189;-83
2023/01/07 00:02:29;;;;;;;4.30;3.60;;;;;;;14.32;63.56;101141.91;685853;28;1029;-83
2023/01/07 00:02:50;;;;;;;4.47;3.80;;;;;;;14.13;63.97;101159.06;683183;28;1094;-83
2023/01/07 00:03:11;;;;;;;4.07;3.67;;;;;;;14.04;64.08;101146.59;688483;28;1113;-83
2023/01/07 00:03:32;;;;;;;4.35;4.00;;;;;;;14.04;64.27;101143.97;688383;28;1297;-83
2023/01/07 00:03:54;;;;;;;4.32;3.92;;;;;;;14.00;64.32;101150.03;685848;28;1117;-82
2023/01/07 00:04:15;;;;;;;4.18;3.78;;;;;;;14.02;64.28;101154.44;685877;28;1036;-83
2023/01/07 00:04:36;;;;;;;3.50;3.20;;;;;;;13.94;64.51;101156.91;691136;28;1133;-83
2023/01/07 00:04:56;;;;;;;3.60;3.30;;;;;;;13.93;64.45;101149.91;688370;28;1171;-83
2023/01/07 00:05:17;;;;;;;3.60;3.30;;;;;;;14.17;64.36;101153.91;685789;28;1914;-82
2023/01/07 00:05:37;;;;;;;4.10;3.70;;;;;;;14.31;63.77;101154.16;685818;28;1178;-82
2023/01/07 00:06:02;;;;;;;4.00;3.60;;;;;;;14.32;63.42;101141.91;685907;28;1097;-83
2023/01/07 00:06:26;;;;;;;4.28;3.70;;;;;;;14.37;63.54;101143.75;688455;28;1616;-83
2023/01/07 00:06:48;;;;;;;3.95;3.50;;;;;;;14.42;63.17;101151.72;680242;29;1377;-82
2023/01/07 00:07:08;;;;;;;4.00;3.60;;;;;;;14.40;63.21;101161.31;683155;28;986;-82
2023/01/07 00:07:29;;;;;;;3.90;3.60;;;;;;;14.35;63.64;101152.47;683191;29;985;-82
2023/01/07 00:07:49;;;;;;;4.20;3.80;;;;;;;14.31;63.44;101154.16;685798;28;1087;-82
2023/01/07 00:08:10;;;;;;;4.25;3.85;;;;;;;14.27;63.58;101141.84;685916;28;1112;-82
2023/01/07 00:08:34;;;;;;;4.25;3.95;;;;;;;14.34;63.62;101142.81;680555;29;1357;-83
2023/01/07 00:09:00;;;;;;;3.95;3.65;;;;;;;14.45;63.16;101137.78;683308;29;792;-82
2023/01/07 00:09:21;;;;;;;3.60;3.30;;;;;;;14.31;63.42;101146.28;683199;29;1034;-82
2023/01/07 00:09:42;;;;;;;3.70;3.40;;;;;;;14.24;63.35;101132.16;680359;29;1403;-82
2023/01/07 00:10:03;;;;;;;4.70;3.80;;;;;;;14.24;63.44;101140.03;685634;28;1280;-81
2023/01/07 00:10:24;;;;;;;4.32;3.80;;;;;;;14.20;63.57;101138.19;680541;29;1221;-83
2023/01/07 00:10:44;;;;;;;3.92;3.53;;;;;;;14.25;63.58;101152.31;688299;28;1513;-83
2023/01/07 00:11:15;;;;;;;3.43;3.13;;;;;;;14.13;64.18;101157.31;691131;28;1271;-82
2023/01/07 00:11:37;;;;;;;3.47;3.17;;;;;;;14.00;64.35;101142.16;688454;28;965;-83
2023/01/07 00:11:58;;;;;;;3.40;3.10;;;;;;;13.97;64.33;101133.34;685746;28;1258;-82
2023/01/07 00:12:18;;;;;;;3.38;3.10;;;;;;;14.04;64.36;101134.38;688463;28;1124;-82
2023/01/07 00:12:39;;;;;;;3.30;3.10;;;;;;;14.07;63.99;101142.28;685804;28;1260;-82
2023/01/07 00:13:00;;;;;;;3.75;3.45;;;;;;;13.97;64.21;101135.97;685737;28;1109;-82
2023/01/07 00:13:21;;;;;;;3.90;3.60;;;;;;;13.97;64.45;101138.59;688586;28;1040;-82
2023/01/07 00:13:43;;;;;;;3.83;3.53;;;;;;;14.16;64.33;101152.13;685635;28;1134;-82
2023/01/07 00:14:05;;;;;;;3.70;3.40;;;;;;;14.08;64.01;101140.56;683059;29;1225;-82
2023/01/07 00:14:26;;;;;;;3.60;3.30;;;;;;;14.10;64.03;101139.75;685725;28;1245;-82
2023/01/07 00:14:46;;;;;;;3.97;3.58;;;;;;;14.31;63.59;101137.53;685597;28;1271;-82
2023/01/07 00:15:07;;;;;;;3.72;3.40;;;;;;;14.38;63.51;101147.28;684408;28;1042;-82
2023/01/07 00:15:28;;;;;;;3.80;3.50;;;;;;;14.24;63.42;101137.41;685737;28;784;-82
2023/01/07 00:15:48;;;;;;;3.53;3.23;;;;;;;14.24;63.33;101142.66;680392;29;971;-82
2023/01/07 00:16:14;;;;;;;3.53;3.22;;;;;;;14.23;63.21;101132.13;685843;28;1044;-83
2023/01/07 00:16:35;;;;;;;3.50;3.20;;;;;;;14.20;63.64;101130.31;683147;28;1249;-82
2023/01/07 00:16:56;;;;;;;3.40;3.10;;;;;;;14.25;63.54;101151.41;685605;28;1267;-82
2023/01/07 00:17:17;;;;;;;3.53;3.22;;;;;;;14.21;63.46;101139.97;685838;28;934;-82
2023/01/07 00:17:37;;;;;;;3.63;3.33;;;;;;;14.29;63.30;101144.47;680419;29;1043;-82
2023/01/07 00:17:58;;;;;;;3.70;3.40;;;;;;;14.29;63.68;101152.34;683166;29;1105;-82
2023/01/07 00:18:18;;;;;;;3.60;3.30;;;;;;;14.25;63.53;101139.19;683011;29;1269;-81
2023/01/07 00:18:40;;;;;;;3.50;3.20;;;;;;;14.30;63.32;101155.00;688340;28;1426;-82
2023/01/07 00:19:03;;;;;;;3.15;2.95;;;;;;;14.19;63.08;101136.44;688463;28;1366;-83
2023/01/07 00:19:23;;;;;;;3.10;2.90;;;;;;;14.01;63.81;101134.28;685748;28;1484;-81
2023/01/07 00:19:44;;;;;;;3.13;2.93;;;;;;;14.04;64.12;101149.22;683005;28;1174;-82
2023/01/07 00:20:05;;;;;;;3.33;3.03;;;;;;;14.05;64.24;101145.75;685718;28;1161;-81
2023/01/07 00:20:25;;;;;;;3.30;3.00;;;;;;;14.06;64.37;101142.25;683189;29;1279;-82
2023/01/07 00:20:46;;;;;;;3.20;3.00;;;;;;;14.15;63.95;101139.88;683185;28;1100;-81
2023/01/07 00:21:10;;;;;;;3.40;3.00;;;;;;;14.14;63.77;101145.97;685866;28;1225;-82
2023/01/07 00:21:31;;;;;;;3.10;2.70;;;;;;;14.08;63.93;101130.06;686104;28;1112;-82
2023/01/07 00:21:52;;;;;;;3.38;2.88;;;;;;;14.11;63.75;101138.94;687112;28;1164;-82
2023/01/07 00:22:12;;;;;;;2.97;2.77;;;;;;;14.06;63.89;101139.63;687295;28;1014;-82
2023/01/07 00:22:33;;;;;;;3.00;2.80;;;;;;;14.00;63.96;101129.03;683768;29;1145;-82
2023/01/07 00:22:53;;;;;;;2.90;2.70;;;;;;;14.15;64.00;101145.13;685161;29;1089;-81
2023/01/07 00:23:15;;;;;;;3.00;2.80;;;;;;;14.00;64.07;101135.16;689233;28;1167;-82
2023/01/07 00:23:37;;;;;;;3.20;3.00;;;;;;;14.06;64.15;101140.53;689374;28;999;-82
2023/01/07 00:24:00;;;;;;;3.50;3.20;;;;;;;14.15;64.09;101139.88;686680;28;1227;-82
2023/01/07 00:24:20;;;;;;;3.42;3.13;;;;;;;14.10;63.87;101131.88;686563;28;1155;-82
2023/01/07 00:24:41;;;;;;;3.40;3.10;;;;;;;14.05;64.00;101133.50;689135;28;1114;-82
2023/01/07 00:25:02;;;;;;;3.20;2.90;;;;;;;14.13;63.93;101138.06;686520;28;1166;-81
2023/01/07 00:25:23;;;;;;;3.30;3.00;;;;;;;14.18;63.75;101131.13;686585;28;1965;-81
2023/01/07 00:25:43;;;;;;;3.20;2.90;;;;;;;14.14;63.73;101127.59;683787;29;1038;-81
2023/01/07 00:26:12;;;;;;;3.30;3.00;;;;;;;14.21;63.79;101134.72;686637;28;1226;-83
2023/01/07 00:26:35;;;;;;;4.50;3.00;;;;;;;14.12;63.75;101118.78;691980;28;1029;-81
2023/01/07 00:27:05;;;;;;;4.53;3.10;;;;;;;14.23;63.90;101143.53;689287;28;1048;-81
2023/01/07 00:27:26;;;;;;;3.22;2.92;;;;;;;14.21;63.79;101129.47;691852;28;938;-83
2023/01/07 00:27:47;;;;;;;3.20;2.90;;;;;;;14.22;63.73;101131.25;689049;28;1112;-82
2023/01/07 00:28:08;;;;;;;3.00;2.80;;;;;;;14.21;63.63;101128.59;689191;28;1333;-78
2023/01/07 00:28:29;;;;;;;3.08;2.80;;;;;;;14.16;63.67;101130.25;690934;28;1135;-81
2023/01/07 00:28:51;;;;;;;3.20;2.90;;;;;;;14.18;63.54;101132.03;691029;28;1124;-81
2023/01/07 00:29:12;;;;;;;3.03;2.83;;;;;;;14.15;63.61;101124.13;688079;28;1178;-82
2023/01/07 00:29:33;;;;;;;2.90;2.70;;;;;;;14.15;63.73;101129.38;686642;28;1153;-81
2023/01/07 00:29:54;;;;;;;2.90;2.70;;;;;;;14.06;63.93;101135.28;686262;28;1302;-81
2023/01/07 00:30:14;;;;;;;3.00;2.80;;;;;;;14.04;63.99;101141.34;686333;28;1276;-83
2023/01/07 00:30:35;;;;;;;2.90;2.70;;;;;;;13.93;64.51;101134.16;681017;28;1166;-81
2023/01/07 00:31:03;;;;;;;2.73;2.53;;;;;;;13.84;64.20;101128.72;680852;29;1215;-81
2023/01/07 00:31:25;;;;;;;2.90;2.63;;;;;;;13.89;64.70;101148.06;686040;28;1180;-82
2023/01/07 00:31:46;;;;;;;2.80;2.60;;;;;;;13.87;64.65;101128.78;683583;29;1107;-81
2023/01/07 00:32:07;;;;;;;2.67;2.47;;;;;;;14.06;64.34;101142.25;681042;29;954;-81
2023/01/07 00:33:06;;;;;;;3.20;2.90;;;;;;;14.09;63.83;101129.22;686308;28;1081;-82
2023/01/07 00:33:27;;;;;;;3.00;2.80;;;;;;;14.15;63.62;101129.38;686226;28;1150;-83
2023/01/07 00:34:22;;;;;;;4.15;2.50;;;;;;;14.14;63.72;101135.47;686118;28;1119;-83
2023/01/07 00:34:42;;;;;;;4.78;2.47;;;;;;;14.17;63.92;101143.41;685981;28;1017;-83
2023/01/07 00:35:20;;;;;;;6.00;2.70;;;;;;;14.00;63.82;101129.03;685983;28;1124;-82
2023/01/07 00:35:43;;;;;;;3.55;2.75;;;;;;;14.16;63.91;101138.09;691274;28;1115;-82
2023/01/07 00:36:07;;;;;;;2.75;2.38;;;;;;;14.06;63.87;101135.28;683204;29;1495;-81
2023/01/07 00:36:33;;;;;;;2.45;2.20;;;;;;;14.14;63.61;101132.84;683069;28;976;-81
2023/01/07 00:37:48;;;;;;;2.55;2.28;;;;;;;14.18;63.52;101145.16;680681;29;919;-82
2023/01/07 00:37:49;;;;;;;3.55;2.50;;;;;;;14.09;63.64;101130.09;680554;29;1179;-81
2023/01/07 00:38:10;;;;;;;3.30;2.40;;;;;;;14.11;63.47;101133.69;680640;29;1145;-81
2023/01/07 00:38:31;;;;;;;3.00;2.67;;;;;;;14.07;63.81;101130.94;683040;29;1156;-83
2023/01/07 00:38:57;;;;;;;3.40;2.80;;;;;;;14.06;63.48;101137.00;683164;29;1191;-82
2023/01/07 00:39:19;;;;;;;2.95;2.65;;;;;;;13.97;63.80;101135.09;680112;29;1348;-83
2023/01/07 00:39:40;;;;;;;3.40;2.65;;;;;;;13.96;63.98;101139.47;683167;29;1050;-82
2023/01/07 00:40:01;;;;;;;2.90;2.40;;;;;;;14.04;63.94;101138.72;685809;28;1256;-82
2023/01/07 00:40:22;;;;;;;2.67;2.47;;;;;;;13.94;64.10;101135.03;688580;28;1152;-83
2023/01/07 00:40:42;;;;;;;2.53;2.33;;;;;;;13.98;64.19;101147.38;688478;28;1093;-82
2023/01/07 00:41:04;;;;;;;6.43;2.70;;;;;;;14.06;63.95;101137.00;685703;28;1187;-83
2023/01/07 00:41:26;;;;;;;6.50;2.60;;;;;;;14.03;64.07;101134.34;685926;28;800;-82
2023/01/07 00:43:36;;;;;;;2.30;2.10;;;;;;;13.99;63.83;101130.75;674024;29;1534;-82
2023/01/07 00:43:57;;;;;;;2.28;2.17;;;;;;;14.03;63.78;101134.34;671690;29;1317;-82
2023/01/07 00:44:17;;;;;;;2.50;2.30;;;;;;;13.97;63.93;101130.72;672508;29;1020;-81
2023/01/07 00:44:38;;;;;;;2.60;2.30;;;;;;;14.01;63.87;101136.06;675620;29;1077;-82
2023/01/07 00:44:58;;;;;;;2.45;2.25;;;;;;;13.92;64.34;101132.41;680355;29;972;-82
2023/01/07 00:45:24;;;;;;;2.38;2.20;;;;;;;13.93;64.10;101131.53;680237;29;1974;-81
2023/01/07 00:45:45;;;;;;;2.38;2.28;;;;;;;13.90;64.17;101143.72;690977;28;1472;-82
2023/01/07 00:46:05;;;;;;;2.40;2.20;;;;;;;13.89;64.08;101134.94;685535;28;1266;-81
2023/01/07 00:46:26;;;;;;;2.42;2.22;;;;;;;13.93;64.14;101130.63;683131;28;1342;-82
2023/01/07 00:46:47;;;;;;;2.33;2.13;;;;;;;14.00;64.04;101140.41;682960;28;1076;-81
2023/01/07 00:47:07;;;;;;;2.45;2.13;;;;;;;13.93;64.01;101138.50;685789;28;1179;-82
2023/01/07 00:47:37;;;;;;;2.38;2.10;;;;;;;13.89;64.01;101127.06;683074;28;777;-82
2023/01/07 00:47:59;;;;;;;2.25;2.15;;;;;;;13.94;64.29;101129.78;683002;28;1414;-82
2023/01/07 00:48:22;;;;;;;2.28;2.17;;;;;;;13.95;64.09;101142.94;680424;29;999;-81
2023/01/07 00:48:46;;;;;;;2.63;2.30;;;;;;;13.87;64.04;101123.53;688235;28;1362;-82
2023/01/07 00:49:06;;;;;;;3.20;2.20;;;;;;;13.90;63.97;101126.22;691078;28;1117;-82
2023/01/07 00:49:27;;;;;;;3.15;2.08;;;;;;;13.97;63.86;101135.09;688397;28;1151;-82
2023/01/07 00:49:48;;;;;;;2.00;1.90;;;;;;;13.98;63.85;101132.53;685566;28;1307;-83
2023/01/07 00:50:09;;;;;;;2.10;1.90;;;;;;;13.94;64.03;101125.44;683029;28;1394;-82
2023/01/07 00:50:32;;;;;;;2.20;2.00;;;;;;;13.93;64.16;101128.00;685612;28;1133;-82
2023/01/07 00:50:53;;;;;;;2.20;2.00;;;;;;;13.89;63.86;101134.94;685623;28;1139;-82
2023/01/07 00:51:16;;;;;;;2.30;2.10;;;;;;;13.96;64.13;101141.22;683046;28;1387;-82
2023/01/07 00:51:37;;;;;;;2.20;2.00;;;;;;;14.08;64.08;101138.81;683016;28;1220;-81
2023/01/07 00:51:58;;;;;;;2.03;1.93;;;;;;;13.94;63.94;101122.81;685630;28;1166;-82
2023/01/07 00:52:19;;;;;;;2.20;2.00;;;;;;;13.97;63.79;101133.34;688433;28;1334;-82
2023/01/07 00:52:39;;;;;;;2.20;2.00;;;;;;;13.98;63.75;101123.75;682952;28;1378;-83
2023/01/07 00:53:00;;;;;;;2.30;2.10;;;;;;;13.96;64.02;101120.22;685592;28;1180;-82
2023/01/07 00:53:21;;;;;;;2.20;2.10;;;;;;;14.03;63.92;101124.75;683069;29;1443;-81
2023/01/07 00:53:42;;;;;;;2.80;2.50;;;;;;;14.19;63.77;101136.44;682992;29;1324;-82
2023/01/07 00:54:03;;;;;;;2.80;2.50;;;;;;;14.19;63.59;101144.31;685752;28;1151;-83
2023/01/07 00:54:24;;;;;;;2.60;2.40;;;;;;;14.23;63.41;101138.28;688367;28;1174;-82
2023/01/07 00:54:45;;;;;;;2.10;2.00;;;;;;;14.22;63.27;101131.25;685551;28;1485;-82
2023/01/07 00:55:06;;;;;;;2.20;2.10;;;;;;;14.27;63.08;101130.44;688336;28;1111;-82
2023/01/07 00:55:28;;;;;;;2.10;2.00;;;;;;;14.31;62.99;101138.41;685769;28;1307;-82
2023/01/07 00:55:50;;;;;;;2.10;2.00;;;;;;;14.23;62.95;101113.75;685608;28;1237;-82
2023/01/07 00:56:19;;;;;;;2.22;2.00;;;;;;;14.30;63.09;101138.34;685765;28;1014;-81
2023/01/07 00:56:40;;;;;;;3.42;2.20;;;;;;;14.20;63.15;101127.69;682902;29;1233;-82
2023/01/07 00:57:00;;;;;;;3.15;2.30;;;;;;;14.25;62.97;101131.31;685592;28;1188;-82
2023/01/07 00:57:21;;;;;;;2.77;2.20;;;;;;;14.08;63.17;101127.44;683030;29;1226;-81
2023/01/07 00:57:42;;;;;;;2.40;2.20;;;;;;;14.16;63.55;101141.63;682861;28;1191;-81
2023/01/07 00:58:04;;;;;;;2.20;2.00;;;;;;;14.14;63.32;101117.09;680367;29;1149;-81
2023/01/07 00:58:25;;;;;;;2.65;1.90;;;;;;;14.20;63.14;101117.19;680404;29;1360;-81
2023/01/07 00:58:46;;;;;;;2.58;1.90;;;;;;;14.18;63.28;101134.66;682914;28;1093;-82
2023/01/07 00:59:07;;;;;;;2.13;1.92;;;;;;;14.04;63.50;101130.84;682952;28;1236;-82
2023/01/07 00:59:28;;;;;;;2.08;1.90;;;;;;;14.03;63.54;101130.00;680535;29;763;-82
2023/01/07 00:59:49;;;;;;;2.13;1.87;;;;;;;14.00;63.43;101124.66;680291;29;1220;-83
2023/01/07 01:00:12;;;;;;;2.28;1.92;;;;;;;13.96;63.71;101123.72;680341;29;1318;-81
2023/01/07 01:00:33;;;;;;;2.13;2.03;;;;;;;13.90;63.99;101122.72;685803;28;1466;-82
2023/01/07 01:00:56;;;;;;;2.22;2.13;;;;;;;13.97;63.99;101135.97;688343;28;1141;-82
2023/01/07 01:01:18;;;;;;;2.17;2.08;;;;;;;14.06;63.82;101124.78;680469;29;1272;-83
2023/01/07 01:01:39;;;;;;;2.10;2.00;;;;;;;14.09;63.34;101122.22;685611;28;1112;-82
2023/01/07 01:01:59;;;;;;;2.10;2.00;;;;;;;14.19;63.32;101128.56;688399;28;1090;-82
2023/01/07 01:02:20;;;;;;;2.30;2.10;;;;;;;14.21;62.98;101124.22;685714;28;974;-82
2023/01/07 01:02:41;;;;;;;2.15;2.05;;;;;;;14.30;63.05;101139.25;682157;29;1170;-82
2023/01/07 01:03:12;;;;;;;2.10;2.00;;;;;;;14.34;62.99;101134.94;683187;29;1163;-82
2023/01/07 01:03:33;;;;;;;2.10;1.90;;;;;;;14.28;63.11;101134.81;683133;29;1124;-82
2023/01/07 01:03:59;;;;;;;2.30;2.00;;;;;;;14.14;63.11;101117.09;685681;28;1159;-82
2023/01/07 01:04:20;;;;;;;2.10;1.90;;;;;;;14.23;63.23;101124.25;680419;29;1127;-82
2023/01/07 01:04:40;;;;;;;2.03;1.92;;;;;;;14.27;62.73;101125.19;683049;28;1340;-82
2023/01/07 01:05:01;;;;;;;2.10;2.00;;;;;;;14.36;63.09;101127.97;688284;28;1216;-82
2023/01/07 01:05:22;;;;;;;2.20;2.00;;;;;;;14.29;62.89;101120.84;682878;29;1915;-82
2023/01/07 01:05:42;;;;;;;2.03;1.83;;;;;;;14.13;63.09;101119.69;685512;28;1152;-84
2023/01/07 01:06:09;;;;;;;2.00;1.80;;;;;;;14.21;63.16;101133.84;682982;28;1232;-83
2023/01/07 01:06:30;;;;;;;2.20;1.80;;;;;;;14.19;62.97;101119.81;683077;29;1042;-81
2023/01/07 01:06:50;;;;;;;2.40;1.88;;;;;;;14.11;62.94;101111.78;685338;28;1153;-82
2023/01/07 01:07:26;;;;;;;2.80;1.90;;;;;;;13.98;63.19;101119.41;683084;29;1264;-83
2023/01/07 01:07:47;;;;;;;2.00;1.80;;;;;;;13.97;63.58;101124.63;683177;28;1097;-82
2023/01/07 01:08:08;;;;;;;2.00;1.80;;;;;;;14.08;63.40;101125.69;685777;28;1187;-82
2023/01/07 01:08:29;;;;;;;1.92;1.80;;;;;;;14.17;63.28;101125.03;683087;28;1059;-82
2023/01/07 01:08:49;;;;;;;1.87;1.77;;;;;;;14.19;63.30;101131.19;685595;28;1061;-82
2023/01/07 01:09:11;;;;;;;2.20;1.90;;;;;;;14.19;63.08;101115.44;683023;28;1149;-82
2023/01/07 01:09:32;;;;;;;2.60;2.00;;;;;;;14.29;62.92;101120.84;683148;28;1546;-82
2023/01/07 01:09:52;;;;;;;2.50;1.98;;;;;;;14.20;62.84;101116.31;685537;28;1012;-82
2023/01/07 01:10:15;;;;;;;2.03;1.87;;;;;;;14.10;63.37;101120.47;685694;28;1006;-82
2023/01/07 01:10:37;;;;;;;1.88;1.77;;;;;;;14.06;63.30;101109.03;688129;28;1335;-82
2023/01/07 01:11:08;;;;;;;1.90;1.80;;;;;;;14.03;63.59;101108.09;688309;28;1109;-82
2023/01/07 01:11:29;;;;;;;2.03;1.92;;;;;;;14.08;63.41;101114.31;682830;28;1973;-83
2023/01/07 01:11:49;;;;;;;2.20;2.10;;;;;;;14.11;63.29;101110.06;680328;29;1051;-82
2023/01/07 01:12:10;;;;;;;2.20;2.10;;;;;;;14.16;63.32;101118.00;680315;29;1264;-82
2023/01/07 01:12:34;;;;;;;2.03;1.92;;;;;;;14.23;63.01;101112.03;682997;29;1186;-83
2023/01/07 01:12:54;;;;;;;2.10;2.00;;;;;;;14.29;63.08;101115.59;682818;28;1366;-82
2023/01/07 01:13:16;;;;;;;2.20;2.00;;;;;;;14.19;63.03;101104.06;682972;29;985;-82
2023/01/07 01:13:38;;;;;;;2.25;2.05;;;;;;;14.33;62.97;101120.06;682940;29;1138;-82
2023/01/07 01:13:59;;;;;;;2.55;1.90;;;;;;;14.11;63.01;101117.94;685516;28;1350;-83
2023/01/07 01:14:19;;;;;;;2.27;1.80;;;;;;;14.10;63.35;101115.22;685733;28;1088;-82
2023/01/07 01:14:40;;;;;;;2.30;1.90;;;;;;;14.05;63.21;101116.88;685658;28;977;-83
2023/01/07 01:15:03;;;;;;;1.98;1.88;;;;;;;14.10;63.42;101121.38;685584;28;1179;-82
2023/01/07 01:15:24;;;;;;;2.30;2.10;;;;;;;14.05;63.57;101115.16;685792;28;1178;-83
2023/01/07 01:15:47;;;;;;;2.20;2.00;;;;;;;13.98;63.46;101101.03;688304;28;1166;-83
2023/01/07 01:16:14;;;;;;;2.15;1.95;;;;;;;13.98;63.46;101108.00;685622;28;1226;-82
2023/01/07 01:16:35;;;;;;;1.90;1.80;;;;;;;14.09;63.02;101105.59;683094;29;1101;-82
2023/01/07 01:16:55;;;;;;;5.72;1.92;;;;;;;14.15;63.07;101115.34;680316;29;1134;-82
2023/01/07 01:17:54;;;;;;;7.00;1.93;;;;;;;14.12;63.24;101118.78;685533;28;1137;-83
2023/01/07 01:18:16;;;;;;;2.20;2.00;;;;;;;14.21;63.04;101112.84;685606;28;1250;-82
2023/01/07 01:18:36;;;;;;;2.22;2.00;;;;;;;14.30;62.94;101106.84;685613;28;1233;-82
2023/01/07 01:18:57;;;;;;;2.75;2.03;;;;;;;14.38;62.47;101111.41;680524;29;1324;-82
2023/01/07 01:19:18;;;;;;;2.57;1.90;;;;;;;14.30;62.43;101096.34;685762;28;1087;-83
2023/01/07 01:19:39;;;;;;;3.15;1.88;;;;;;;14.39;62.42;101107.06;683054;28;1109;-82
2023/01/07 01:19:59;;;;;;;2.45;1.70;;;;;;;14.40;62.37;101108.81;682857;28;1197;-83
2023/01/07 01:20:20;;;;;;;2.40;1.70;;;;;;;14.28;62.63;101108.59;688372;28;1135;-82
2023/01/07 01:20:41;;;;;;;1.90;1.80;;;;;;;14.38;62.26;101110.53;688327;28;1062;-82
2023/01/07 01:21:04;;;;;;;1.80;1.70;;;;;;;14.36;62.38;101096.47;682934;29;1040;-82
2023/01/07 01:21:24;;;;;;;2.00;1.90;;;;;;;14.36;62.22;101093.84;688480;28;818;-82
2023/01/07 01:21:45;;;;;;;1.90;1.80;;;;;;;14.37;62.34;101103.50;685501;28;1157;-83
2023/01/07 01:22:06;;;;;;;1.75;1.65;;;;;;;14.41;62.18;101109.69;685708;28;1051;-83
2023/01/07 01:22:27;;;;;;;1.80;1.70;;;;;;;14.34;62.35;101088.59;685642;28;1153;-82
2023/01/07 01:22:47;;;;;;;1.90;1.80;;;;;;;14.42;62.46;101109.72;690871;28;1322;-83
2023/01/07 01:23:08;;;;;;;2.53;1.80;;;;;;;14.47;62.73;101112.41;685770;28;1214;-82
2023/01/07 01:23:28;;;;;;;2.45;1.70;;;;;;;14.44;62.14;101099.25;683050;29;1221;-83
2023/01/07 01:23:49;;;;;;;2.60;1.67;;;;;;;14.40;62.29;101098.31;682777;29;1146;-83
2023/01/07 01:24:12;;;;;;;1.90;1.75;;;;;;;14.39;61.86;101101.78;683076;29;879;-83
2023/01/07 01:24:32;;;;;;;1.83;1.73;;;;;;;14.48;62.34;101116.81;685481;28;1312;-83
2023/01/07 01:24:53;;;;;;;1.70;1.60;;;;;;;14.46;61.88;101098.41;685591;28;1120;-83
2023/01/07 01:25:14;;;;;;;1.77;1.40;;;;;;;14.51;61.71;101112.50;685604;28;1911;-83
2023/01/07 01:25:34;;;;;;;2.00;1.40;;;;;;;14.50;61.77;101113.34;680283;28;1416;-83
2023/01/07 01:26:06;;;;;;;2.00;1.48;;;;;;;14.53;62.07;101110.78;685504;28;1008;-82
2023/01/07 01:26:27;;;;;;;1.63;1.52;;;;;;;14.35;61.83;101094.72;680371;29;824;-82
2023/01/07 01:26:47;;;;;;;1.60;1.50;;;;;;;14.48;61.94;101111.56;685070;28;1080;-83
2023/01/07 01:27:08;;;;;;;1.60;1.50;;;;;;;14.48;61.78;101112.47;685675;28;1273;-83
2023/01/07 01:27:30;;;;;;;2.40;1.50;;;;;;;14.47;61.81;101110.69;680276;29;1322;-83
2023/01/07 01:27:50;;;;;;;2.60;1.60;;;;;;;14.42;62.20;101112.34;680156;29;1226;-82
2023/01/07 01:28:11;;;;;;;2.90;1.67;;;;;;;14.23;62.04;101100.63;682944;29;1142;-82
2023/01/07 01:28:33;;;;;;;2.00;1.70;;;;;;;14.18;62.24;101102.28;685625;28;1144;-83
2023/01/07 01:28:53;;;;;;;1.80;1.50;;;;;;;14.20;62.63;101111.94;688320;28;1251;-83
2023/01/07 01:29:17;;;;;;;1.60;1.40;;;;;;;14.32;62.46;101120.91;682872;29;1285;-83
2023/01/07 01:29:38;;;;;;;1.60;1.50;;;;;;;14.29;62.29;101102.47;685492;28;1066;-83
2023/01/07 01:29:59;;;;;;;1.77;1.67;;;;;;;14.33;62.25;101117.44;685606;28;1092;-83
2023/01/07 01:30:21;;;;;;;2.38;1.80;;;;;;;14.20;62.65;101105.84;682933;28;1355;-83
2023/01/07 01:30:43;;;;;;;3.90;2.00;;;;;;;14.21;62.64;101110.22;685437;28;1260;-82
2023/01/07 01:31:07;;;;;;;4.00;2.00;;;;;;;14.16;62.77;101111.88;685575;28;1222;-83
2023/01/07 01:31:36;;;;;;;1.70;1.60;;;;;;;14.25;62.57;101110.31;682920;29;1123;-83
2023/01/07 01:31:59;;;;;;;1.65;1.55;;;;;;;14.25;62.58;101106.78;685714;28;1095;-83
2023/01/07 01:32:21;;;;;;;1.73;1.63;;;;;;;14.30;62.29;101102.50;688215;28;1238;-83
2023/01/07 01:32:41;;;;;;;1.88;1.77;;;;;;;14.33;62.36;101112.19;688225;28;1068;-83
2023/01/07 01:33:02;;;;;;;1.90;1.80;;;;;;;14.35;62.16;101103.47;685431;28;1509;-83
2023/01/07 01:33:23;;;;;;;2.10;1.75;;;;;;;14.41;62.03;101115.81;685659;28;1177;-83
2023/01/07 01:33:44;;;;;;;2.50;1.60;;;;;;;14.40;62.09;101108.81;688084;28;1143;-83
2023/01/07 01:34:05;;;;;;;2.30;1.58;;;;;;;14.38;62.34;101106.16;680313;29;1173;-83
2023/01/07 01:34:26;;;;;;;1.73;1.60;;;;;;;14.31;62.15;101106.03;682993;28;1158;-83
2023/01/07 01:34:47;;;;;;;1.77;1.67;;;;;;;14.30;62.23;101101.59;680327;29;1125;-83
2023/01/07 01:35:08;;;;;;;1.52;1.40;;;;;;;14.37;62.18;101101.75;685770;28;1022;-83
2023/01/07 01:35:28;;;;;;;1.50;1.40;;;;;;;14.44;62.16;101109.75;685714;28;1155;-83
2023/01/07 01:35:49;;;;;;;1.50;1.40;;;;;;;14.37;62.02;101099.13;685415;28;1335;-82
2023/01/07 01:36:12;;;;;;;1.67;1.52;;;;;;;14.45;62.09;101115.00;683099;29;1488;-83
2023/01/07 01:36:33;;;;;;;1.88;1.70;;;;;;;14.38;61.77;101100.03;685386;28;1343;-83
2023/01/07 01:36:53;;;;;;;1.90;1.80;;;;;;;14.32;62.12;101099.91;688020;28;1156;-83
2023/01/07 01:37:14;;;;;;;1.80;1.70;;;;;;;14.32;62.20;101111.28;688296;28;1130;-83
2023/01/07 01:37:35;;;;;;;1.87;1.77;;;;;;;14.40;62.02;101108.81;680393;29;991;-83
2023/01/07 01:37:59;;;;;;;1.80;1.70;;;;;;;14.44;61.89;101108.00;682889;29;1166;-83
2023/01/07 01:38:20;;;;;;;1.58;1.48;;;;;;;14.39;62.14;101101.78;683038;29;1996;-83
2023/01/07 01:38:41;;;;;;;1.33;1.27;;;;;;;14.39;62.04;101107.06;685596;28;956;-83
2023/01/07 01:39:03;;;;;;;1.40;1.30;;;;;;;14.35;62.04;101115.72;685520;28;1291;-83
2023/01/07 01:39:26;;;;;;;2.20;1.33;;;;;;;14.30;62.01;101096.34;682952;29;1252;-82
2023/01/07 01:39:47;;;;;;;2.28;1.50;;;;;;;14.25;62.47;101098.91;682814;29;1253;-83
2023/01/07 01:40:10;;;;;;;1.90;1.40;;;;;;;14.10;62.79;101095.13;682836;29;1199;-82
2023/01/07 01:40:30;;;;;;;1.42;1.33;;;;;;;14.11;62.70;101104.81;688221;28;1151;-83
2023/01/07 01:40:51;;;;;;;1.50;1.40;;;;;;;14.05;62.72;101106.38;685516;28;1215;-83
2023/01/07 01:41:16;;;;;;;1.60;1.50;;;;;;;14.14;62.57;101096.13;688305;28;1182;-82
2023/01/07 01:41:38;;;;;;;1.60;1.50;;;;;;;14.09;62.64;101105.59;688306;28;957;-83
2023/01/07 01:42:01;;;;;;;1.63;1.52;;;;;;;14.05;62.98;101109.00;682863;29;1257;-83
2023/01/07 01:42:24;;;;;;;1.60;1.50;;;;;;;13.98;62.90;101100.13;685485;28;1149;-83
2023/01/07 01:42:46;;;;;;;1.80;1.70;;;;;;;13.81;63.21;101095.44;685517;28;1272;-83
2023/01/07 01:43:33;;;;;;;1.60;1.50;;;;;;;14.00;63.47;101113.28;680201;28;1419;-83
2023/01/07 01:43:54;;;;;;;1.60;1.50;;;;;;;13.94;63.25;101109.69;682928;29;1232;-83
2023/01/07 01:44:48;;;;;;;1.70;1.60;;;;;;;14.05;63.37;101115.16;682975;29;1096;-83
2023/01/07 01:45:15;;;;;;;2.20;1.73;;;;;;;13.95;63.15;101098.34;685521;28;1910;-83
2023/01/07 01:45:36;;;;;;;2.00;1.60;;;;;;;14.00;63.34;101114.16;682879;29;1308;-83
2023/01/07 01:46:12;;;;;;;1.60;1.50;;;;;;;14.02;63.24;101112.44;680188;29;1317;-83
2023/01/07 01:46:40;;;;;;;1.50;1.40;;;;;;;13.95;63.35;101098.34;688240;28;989;-83
2023/01/07 01:47:07;;;;;;;1.50;1.40;;;;;;;13.85;63.23;101093.78;682771;28;1268;-83
2023/01/07 01:47:36;;;;;;;1.50;1.40;;;;;;;13.97;63.24;101114.97;688235;28;1110;-82
2023/01/07 01:48:03;;;;;;;1.50;1.40;;;;;;;13.88;63.18;101096.44;682803;29;1195;-83
2023/01/07 01:48:24;;;;;;;1.60;1.50;;;;;;;13.91;62.98;101103.50;683104;29;823;-83
2023/01/07 01:48:52;;;;;;;1.60;1.50;;;;;;;13.91;63.23;101104.41;680039;29;1417;-83
2023/01/07 01:49:28;;;;;;;1.60;1.50;;;;;;;13.96;63.03;101113.22;682900;29;1240;-83
2023/01/07 01:50:16;;;;;;;1.60;1.50;;;;;;;13.96;63.41;101107.97;680252;29;1130;-83
2023/01/07 01:50:42;;;;;;;1.92;1.60;;;;;;;13.97;63.17;101111.50;685442;28;1267;-83